sensor_id;sensor_type;location;lat;lon;timestamp;P1;durP1;ratioP1;P2;durP2;ratioP2
74788;SDS011;63313;48.258;12.518;2023-03-14T00:04:27;4.15;;;1.94;;
74788;SDS011;63313;48.258;12.518;2023-03-14T00:09:54;1.85;;;1.65;;
74788;SDS011;63313;48.258;12.518;2023-03-14T00:15:21;4.590000000000001;;;1.7399999999999998;;
74788;SDS011;63313;48.258;12.518;2023-03-14T00:20:48;3.9;;;1.67;;
74788;SDS011;63313;48.258;12.518;2023-03-14T00:26:16;2.5100000000000002;;;2.3299999999999996;;
74788;SDS011;63313;48.258;12.518;2023-03-14T00:31:43;5.26;;;2.29;;
74788;SDS011;63313;48.258;12.518;2023-03-14T00:37:10;2.07;;;1.7;;
74788;SDS011;63313;48.258;12.518;2023-03-14T00:42:37;2.88;;;1.54;;
74788;SDS011;63313;48.258;12.518;2023-03-14T00:48:05;1.7099999999999997;;;1.5799999999999998;;
74788;SDS011;63313;48.258;12.518;2023-03-14T00:53:34;2.19;;;1.6300000000000001;;
74788;SDS011;63313;48.258;12.518;2023-03-14T00:59:02;4.76;;;1.81;;
74788;SDS011;63313;48.258;12.518;2023-03-14T01:04:29;4.19;;;2.15;;
74788;SDS011;63313;48.258;12.518;2023-03-14T01:09:56;3.37;;;2.0300000000000002;;
74788;SDS011;63313;48.258;12.518;2023-03-14T01:15:23;1.9200000000000004;;;1.75;;
74788;SDS011;63313;48.258;12.518;2023-03-14T01:20:50;2.61;;;1.7600000000000002;;
74788;SDS011;63313;48.258;12.518;2023-03-14T01:26:18;2.53;;;1.64;;
74788;SDS011;63313;48.258;12.518;2023-03-14T01:31:45;3.3200000000000003;;;2.1399999999999997;;
74788;SDS011;63313;48.258;12.518;2023-03-14T01:37:13;2.1100000000000003;;;1.92;;
74788;SDS011;63313;48.258;12.518;2023-03-14T01:42:44;2.38;;;2.1399999999999997;;
74788;SDS011;63313;48.258;12.518;2023-03-14T01:48:11;8.04;;;2.1900000000000004;;
74788;SDS011;63313;48.258;12.518;2023-03-14T01:53:38;2.8;;;1.8199999999999996;;
74788;SDS011;63313;48.258;12.518;2023-03-14T01:59:06;5.74;;;2.03;;
74788;SDS011;63313;48.258;12.518;2023-03-14T02:04:34;4.839999999999999;;;2.29;;
74788;SDS011;63313;48.258;12.518;2023-03-14T02:10:02;3.07;;;2.0;;
74788;SDS011;63313;48.258;12.518;2023-03-14T02:15:30;2.8;;;1.8099999999999998;;
74788;SDS011;63313;48.258;12.518;2023-03-14T02:20:58;3.05;;;1.8799999999999997;;
74788;SDS011;63313;48.258;12.518;2023-03-14T02:26:27;1.75;;;1.6099999999999999;;
74788;SDS011;63313;48.258;12.518;2023-03-14T02:31:55;1.3800000000000003;;;1.1700000000000002;;
74788;SDS011;63313;48.258;12.518;2023-03-14T02:37:23;1.08;;;1.06;;
74788;SDS011;63313;48.258;12.518;2023-03-14T02:42:51;1.35;;;1.15;;
74788;SDS011;63313;48.258;12.518;2023-03-14T02:48:19;1.59;;;0.93;;
74788;SDS011;63313;48.258;12.518;2023-03-14T02:53:47;1.2299999999999998;;;0.71;;
74788;SDS011;63313;48.258;12.518;2023-03-14T02:59:14;0.76;;;0.6900000000000001;;
74788;SDS011;63313;48.258;12.518;2023-03-14T03:04:41;0.71;;;0.6799999999999999;;
74788;SDS011;63313;48.258;12.518;2023-03-14T03:10:09;0.7;;;0.7;;
74788;SDS011;63313;48.258;12.518;2023-03-14T03:15:36;1.6800000000000002;;;0.71;;
74788;SDS011;63313;48.258;12.518;2023-03-14T03:21:04;0.8;;;0.71;;
74788;SDS011;63313;48.258;12.518;2023-03-14T03:26:31;1.04;;;0.57;;
74788;SDS011;63313;48.258;12.518;2023-03-14T03:31:59;2.01;;;0.5800000000000001;;
74788;SDS011;63313;48.258;12.518;2023-03-14T03:37:26;0.61;;;0.61;;
74788;SDS011;63313;48.258;12.518;2023-03-14T03:42:54;0.44000000000000006;;;0.4;;
74788;SDS011;63313;48.258;12.518;2023-03-14T03:48:21;0.51;;;0.51;;
74788;SDS011;63313;48.258;12.518;2023-03-14T03:53:48;3.4199999999999995;;;1.5;;
74788;SDS011;63313;48.258;12.518;2023-03-14T03:59:15;0.9800000000000001;;;0.8099999999999999;;
74788;SDS011;63313;48.258;12.518;2023-03-14T04:04:42;0.8099999999999999;;;0.49000000000000005;;
74788;SDS011;63313;48.258;12.518;2023-03-14T04:10:09;0.43;;;0.43;;
74788;SDS011;63313;48.258;12.518;2023-03-14T04:15:36;0.5800000000000001;;;0.47000000000000003;;
74788;SDS011;63313;48.258;12.518;2023-03-14T04:21:04;0.38;;;0.38;;
74788;SDS011;63313;48.258;12.518;2023-03-14T04:26:31;0.45000000000000007;;;0.4;;
74788;SDS011;63313;48.258;12.518;2023-03-14T04:31:58;0.48;;;0.48;;
74788;SDS011;63313;48.258;12.518;2023-03-14T04:37:25;0.42000000000000004;;;0.41000000000000003;;
74788;SDS011;63313;48.258;12.518;2023-03-14T04:42:52;0.4;;;0.4;;
74788;SDS011;63313;48.258;12.518;2023-03-14T04:48:19;0.47000000000000003;;;0.47000000000000003;;
74788;SDS011;63313;48.258;12.518;2023-03-14T04:53:46;0.5900000000000001;;;0.48;;
74788;SDS011;63313;48.258;12.518;2023-03-14T04:59:13;0.53;;;0.53;;
74788;SDS011;63313;48.258;12.518;2023-03-14T05:04:40;0.57;;;0.57;;
74788;SDS011;63313;48.258;12.518;2023-03-14T05:10:08;0.48;;;0.48;;
74788;SDS011;63313;48.258;12.518;2023-03-14T05:15:35;2.1899999999999995;;;0.45999999999999996;;
74788;SDS011;63313;48.258;12.518;2023-03-14T05:21:02;0.5999999999999999;;;0.5999999999999999;;
74788;SDS011;63313;48.258;12.518;2023-03-14T05:26:30;0.79;;;0.5;;
74788;SDS011;63313;48.258;12.518;2023-03-14T05:31:57;0.42000000000000004;;;0.42000000000000004;;
74788;SDS011;63313;48.258;12.518;2023-03-14T05:37:24;0.56;;;0.56;;
74788;SDS011;63313;48.258;12.518;2023-03-14T05:42:51;0.53;;;0.53;;
74788;SDS011;63313;48.258;12.518;2023-03-14T05:48:18;0.72;;;0.72;;
74788;SDS011;63313;48.258;12.518;2023-03-14T05:53:45;0.7;;;0.6599999999999999;;
74788;SDS011;63313;48.258;12.518;2023-03-14T05:59:12;1.0999999999999999;;;0.5999999999999999;;
74788;SDS011;63313;48.258;12.518;2023-03-14T06:04:39;0.9399999999999998;;;0.49000000000000005;;
74788;SDS011;63313;48.258;12.518;2023-03-14T06:10:06;0.5;;;0.5;;
74788;SDS011;63313;48.258;12.518;2023-03-14T06:15:34;1.15;;;0.5;;
74788;SDS011;63313;48.258;12.518;2023-03-14T06:21:01;0.44000000000000006;;;0.44000000000000006;;
74788;SDS011;63313;48.258;12.518;2023-03-14T06:26:28;1.08;;;0.52;;
74788;SDS011;63313;48.258;12.518;2023-03-14T06:31:55;0.61;;;0.5;;
74788;SDS011;63313;48.258;12.518;2023-03-14T06:37:22;4.1899999999999995;;;0.4800000000000001;;
74788;SDS011;63313;48.258;12.518;2023-03-14T06:42:49;0.49000000000000005;;;0.45999999999999996;;
74788;SDS011;63313;48.258;12.518;2023-03-14T06:48:16;0.38;;;0.38;;
74788;SDS011;63313;48.258;12.518;2023-03-14T06:53:43;0.8700000000000001;;;0.51;;
74788;SDS011;63313;48.258;12.518;2023-03-14T06:59:10;0.7700000000000001;;;0.7700000000000001;;
74788;SDS011;63313;48.258;12.518;2023-03-14T07:04:37;0.61;;;0.5999999999999999;;
74788;SDS011;63313;48.258;12.518;2023-03-14T07:10:04;0.6699999999999999;;;0.57;;
74788;SDS011;63313;48.258;12.518;2023-03-14T07:15:32;1.58;;;0.45999999999999996;;
74788;SDS011;63313;48.258;12.518;2023-03-14T07:20:59;0.57;;;0.5399999999999998;;
74788;SDS011;63313;48.258;12.518;2023-03-14T07:26:26;0.7300000000000001;;;0.59;;
74788;SDS011;63313;48.258;12.518;2023-03-14T07:31:53;2.3;;;0.6599999999999999;;
74788;SDS011;63313;48.258;12.518;2023-03-14T07:37:20;0.47000000000000003;;;0.47000000000000003;;
74788;SDS011;63313;48.258;12.518;2023-03-14T07:42:47;0.6;;;0.47000000000000003;;
74788;SDS011;63313;48.258;12.518;2023-03-14T07:48:14;1.7600000000000002;;;0.7300000000000001;;
74788;SDS011;63313;48.258;12.518;2023-03-14T07:53:41;1.2600000000000002;;;0.68;;
74788;SDS011;63313;48.258;12.518;2023-03-14T07:59:08;0.96;;;0.57;;
74788;SDS011;63313;48.258;12.518;2023-03-14T08:04:35;0.6399999999999999;;;0.6399999999999999;;
74788;SDS011;63313;48.258;12.518;2023-03-14T08:10:03;0.7;;;0.6799999999999999;;
74788;SDS011;63313;48.258;12.518;2023-03-14T08:15:31;0.77;;;0.74;;
74788;SDS011;63313;48.258;12.518;2023-03-14T08:20:58;1.8800000000000001;;;0.6799999999999999;;
74788;SDS011;63313;48.258;12.518;2023-03-14T08:26:25;1.18;;;0.6900000000000001;;
74788;SDS011;63313;48.258;12.518;2023-03-14T08:31:52;3.3199999999999994;;;0.76;;
74788;SDS011;63313;48.258;12.518;2023-03-14T08:37:19;0.8400000000000001;;;0.5800000000000001;;
74788;SDS011;63313;48.258;12.518;2023-03-14T08:42:46;0.8400000000000001;;;0.79;;
74788;SDS011;63313;48.258;12.518;2023-03-14T08:48:13;2.0;;;0.8300000000000001;;
74788;SDS011;63313;48.258;12.518;2023-03-14T08:53:40;1.8599999999999999;;;1.02;;
74788;SDS011;63313;48.258;12.518;2023-03-14T08:59:07;6.6;;;1.8800000000000001;;
74788;SDS011;63313;48.258;12.518;2023-03-14T09:04:34;5.46;;;1.92;;
74788;SDS011;63313;48.258;12.518;2023-03-14T09:10:02;2.87;;;1.1800000000000002;;
74788;SDS011;63313;48.258;12.518;2023-03-14T09:15:29;2.13;;;1.2099999999999997;;
74788;SDS011;63313;48.258;12.518;2023-03-14T09:20:56;1.98;;;0.8700000000000001;;
74788;SDS011;63313;48.258;12.518;2023-03-14T09:26:23;2.3600000000000003;;;1.16;;
74788;SDS011;63313;48.258;12.518;2023-03-14T09:31:50;1.94;;;1.37;;
74788;SDS011;63313;48.258;12.518;2023-03-14T09:37:17;1.77;;;1.17;;
74788;SDS011;63313;48.258;12.518;2023-03-14T09:42:44;2.3000000000000003;;;1.1099999999999999;;
74788;SDS011;63313;48.258;12.518;2023-03-14T09:48:14;2.53;;;1.6;;
74788;SDS011;63313;48.258;12.518;2023-03-14T09:53:42;0.9100000000000001;;;0.9100000000000001;;
74788;SDS011;63313;48.258;12.518;2023-03-14T09:59:10;1.27;;;0.8099999999999999;;
74788;SDS011;63313;48.258;12.518;2023-03-14T10:04:39;1.5599999999999998;;;0.76;;
74788;SDS011;63313;48.258;12.518;2023-03-14T10:10:09;1.09;;;0.97;;
74788;SDS011;63313;48.258;12.518;2023-03-14T10:15:37;1.5100000000000002;;;0.8400000000000001;;
74788;SDS011;63313;48.258;12.518;2023-03-14T10:21:05;0.69;;;0.6599999999999999;;
74788;SDS011;63313;48.258;12.518;2023-03-14T10:26:33;0.9600000000000002;;;0.8300000000000001;;
74788;SDS011;63313;48.258;12.518;2023-03-14T10:32:01;1.54;;;0.71;;
74788;SDS011;63313;48.258;12.518;2023-03-14T10:37:29;2.23;;;0.6799999999999999;;
74788;SDS011;63313;48.258;12.518;2023-03-14T10:42:57;1.05;;;0.8800000000000001;;
74788;SDS011;63313;48.258;12.518;2023-03-14T10:48:29;0.6399999999999999;;;0.6399999999999999;;
74788;SDS011;63313;48.258;12.518;2023-03-14T10:53:58;1.8900000000000001;;;0.8;;
74788;SDS011;63313;48.258;12.518;2023-03-14T10:59:25;0.9200000000000002;;;0.7699999999999999;;
74788;SDS011;63313;48.258;12.518;2023-03-14T11:04:56;0.5599999999999999;;;0.5599999999999999;;
74788;SDS011;63313;48.258;12.518;2023-03-14T11:10:30;0.74;;;0.74;;
74788;SDS011;63313;48.258;12.518;2023-03-14T11:16:01;1.19;;;0.5499999999999999;;
74788;SDS011;63313;48.258;12.518;2023-03-14T11:21:29;0.9299999999999999;;;0.69;;
74788;SDS011;63313;48.258;12.518;2023-03-14T11:26:59;0.72;;;0.5999999999999999;;
74788;SDS011;63313;48.258;12.518;2023-03-14T11:32:35;0.7;;;0.61;;
74788;SDS011;63313;48.258;12.518;2023-03-14T11:38:07;1.97;;;0.6300000000000001;;
74788;SDS011;63313;48.258;12.518;2023-03-14T11:43:38;0.57;;;0.57;;
74788;SDS011;63313;48.258;12.518;2023-03-14T11:49:06;0.79;;;0.79;;
74788;SDS011;63313;48.258;12.518;2023-03-14T11:54:35;1.8700000000000003;;;0.8600000000000001;;
74788;SDS011;63313;48.258;12.518;2023-03-14T12:00:12;1.5699999999999998;;;0.74;;
74788;SDS011;63313;48.258;12.518;2023-03-14T12:05:45;0.67;;;0.67;;
74788;SDS011;63313;48.258;12.518;2023-03-14T12:11:15;1.05;;;0.54;;
74788;SDS011;63313;48.258;12.518;2023-03-14T12:16:45;1.3000000000000003;;;0.5999999999999999;;
74788;SDS011;63313;48.258;12.518;2023-03-14T12:22:22;0.5399999999999998;;;0.5399999999999998;;
74788;SDS011;63313;48.258;12.518;2023-03-14T12:28:49;0.6599999999999999;;;0.6399999999999999;;
74788;SDS011;63313;48.258;12.518;2023-03-14T12:34:26;2.1;;;0.63;;
74788;SDS011;63313;48.258;12.518;2023-03-14T12:39:57;0.52;;;0.52;;
74788;SDS011;63313;48.258;12.518;2023-03-14T12:45:29;0.8099999999999999;;;0.6599999999999999;;
74788;SDS011;63313;48.258;12.518;2023-03-14T12:51:00;1.28;;;0.89;;
74788;SDS011;63313;48.258;12.518;2023-03-14T12:56:35;1.1400000000000001;;;0.9099999999999999;;
74788;SDS011;63313;48.258;12.518;2023-03-14T13:02:21;1.47;;;0.7;;
74788;SDS011;63313;48.258;12.518;2023-03-14T13:08:05;0.9800000000000001;;;0.6499999999999999;;
74788;SDS011;63313;48.258;12.518;2023-03-14T13:13:34;2.7600000000000002;;;1.02;;
74788;SDS011;63313;48.258;12.518;2023-03-14T13:19:02;2.0900000000000003;;;1.4500000000000002;;
74788;SDS011;63313;48.258;12.518;2023-03-14T13:24:33;3.54;;;0.97;;
74788;SDS011;63313;48.258;12.518;2023-03-14T13:30:05;1.0899999999999999;;;1.06;;
74788;SDS011;63313;48.258;12.518;2023-03-14T13:35:38;0.5799999999999998;;;0.5799999999999998;;
74788;SDS011;63313;48.258;12.518;2023-03-14T13:41:06;2.8500000000000005;;;0.5399999999999998;;
74788;SDS011;63313;48.258;12.518;2023-03-14T13:46:35;1.2;;;0.78;;
74788;SDS011;63313;48.258;12.518;2023-03-14T13:52:02;1.8399999999999999;;;0.8300000000000001;;
74788;SDS011;63313;48.258;12.518;2023-03-14T13:57:42;4.04;;;0.76;;
74788;SDS011;63313;48.258;12.518;2023-03-14T14:03:09;1.7099999999999997;;;1.21;;
74788;SDS011;63313;48.258;12.518;2023-03-14T14:08:39;2.94;;;0.97;;
74788;SDS011;63313;48.258;12.518;2023-03-14T14:14:08;0.74;;;0.72;;
74788;SDS011;63313;48.258;12.518;2023-03-14T14:19:37;0.6799999999999999;;;0.64;;
74788;SDS011;63313;48.258;12.518;2023-03-14T14:25:05;4.01;;;0.5499999999999999;;
74788;SDS011;63313;48.258;12.518;2023-03-14T14:30:33;2.09;;;0.8099999999999999;;
74788;SDS011;63313;48.258;12.518;2023-03-14T14:36:00;1.2400000000000002;;;1.1;;
74788;SDS011;63313;48.258;12.518;2023-03-14T14:41:31;0.45000000000000007;;;0.44000000000000006;;
74788;SDS011;63313;48.258;12.518;2023-03-14T14:46:58;1.14;;;0.5;;
74788;SDS011;63313;48.258;12.518;2023-03-14T14:52:30;0.36;;;0.36;;
74788;SDS011;63313;48.258;12.518;2023-03-14T14:57:58;0.5;;;0.5;;
74788;SDS011;63313;48.258;12.518;2023-03-14T15:03:37;0.37;;;0.37;;
74788;SDS011;63313;48.258;12.518;2023-03-14T15:09:05;0.36;;;0.36;;
74788;SDS011;63313;48.258;12.518;2023-03-14T15:14:32;0.54;;;0.4600000000000001;;
74788;SDS011;63313;48.258;12.518;2023-03-14T15:19:59;0.54;;;0.54;;
74788;SDS011;63313;48.258;12.518;2023-03-14T15:25:26;1.5799999999999998;;;0.4;;
74788;SDS011;63313;48.258;12.518;2023-03-14T15:30:54;0.72;;;0.57;;
74788;SDS011;63313;48.258;12.518;2023-03-14T15:36:22;0.72;;;0.61;;
74788;SDS011;63313;48.258;12.518;2023-03-14T15:41:50;2.27;;;0.7;;
74788;SDS011;63313;48.258;12.518;2023-03-14T15:47:17;2.2600000000000002;;;0.6199999999999999;;
74788;SDS011;63313;48.258;12.518;2023-03-14T15:52:44;1.2399999999999998;;;0.71;;
74788;SDS011;63313;48.258;12.518;2023-03-14T15:58:15;1.2099999999999997;;;0.6799999999999999;;
74788;SDS011;63313;48.258;12.518;2023-03-14T16:03:42;0.61;;;0.53;;
74788;SDS011;63313;48.258;12.518;2023-03-14T16:09:09;0.5999999999999999;;;0.5899999999999999;;
74788;SDS011;63313;48.258;12.518;2023-03-14T16:14:37;1.0499999999999998;;;0.5299999999999999;;
74788;SDS011;63313;48.258;12.518;2023-03-14T16:20:04;1.8;;;0.64;;
74788;SDS011;63313;48.258;12.518;2023-03-14T16:25:31;1.1300000000000001;;;0.8699999999999999;;
74788;SDS011;63313;48.258;12.518;2023-03-14T16:31:00;1.23;;;0.6799999999999999;;
74788;SDS011;63313;48.258;12.518;2023-03-14T16:36:27;2.66;;;0.5399999999999999;;
74788;SDS011;63313;48.258;12.518;2023-03-14T16:41:54;3.19;;;1.06;;
74788;SDS011;63313;48.258;12.518;2023-03-14T16:47:21;2.05;;;0.76;;
74788;SDS011;63313;48.258;12.518;2023-03-14T16:52:48;1.7400000000000002;;;0.89;;
74788;SDS011;63313;48.258;12.518;2023-03-14T16:58:15;1.0500000000000003;;;0.9;;
74788;SDS011;63313;48.258;12.518;2023-03-14T17:03:43;1.85;;;1.1199999999999999;;
74788;SDS011;63313;48.258;12.518;2023-03-14T17:09:10;0.6300000000000001;;;0.6300000000000001;;
74788;SDS011;63313;48.258;12.518;2023-03-14T17:14:37;2.96;;;0.7700000000000001;;
74788;SDS011;63313;48.258;12.518;2023-03-14T17:20:05;1.3399999999999999;;;1.02;;
74788;SDS011;63313;48.258;12.518;2023-03-14T17:25:33;0.8400000000000001;;;0.8400000000000001;;
74788;SDS011;63313;48.258;12.518;2023-03-14T17:31:02;0.74;;;0.74;;
74788;SDS011;63313;48.258;12.518;2023-03-14T17:36:29;0.73;;;0.71;;
74788;SDS011;63313;48.258;12.518;2023-03-14T17:41:56;1.1300000000000001;;;0.72;;
74788;SDS011;63313;48.258;12.518;2023-03-14T17:47:23;0.79;;;0.64;;
74788;SDS011;63313;48.258;12.518;2023-03-14T17:52:50;0.6799999999999999;;;0.6799999999999999;;
74788;SDS011;63313;48.258;12.518;2023-03-14T17:58:17;1.08;;;0.6900000000000001;;
74788;SDS011;63313;48.258;12.518;2023-03-14T18:03:44;1.3299999999999998;;;1.02;;
74788;SDS011;63313;48.258;12.518;2023-03-14T18:09:11;5.92;;;1.0799999999999998;;
74788;SDS011;63313;48.258;12.518;2023-03-14T18:14:38;2.9899999999999998;;;0.97;;
74788;SDS011;63313;48.258;12.518;2023-03-14T18:20:06;2.3000000000000003;;;0.78;;
74788;SDS011;63313;48.258;12.518;2023-03-14T18:25:33;0.75;;;0.7;;
74788;SDS011;63313;48.258;12.518;2023-03-14T18:31:01;2.77;;;0.8800000000000001;;
74788;SDS011;63313;48.258;12.518;2023-03-14T18:36:28;0.96;;;0.8;;
74788;SDS011;63313;48.258;12.518;2023-03-14T18:41:55;1.39;;;0.78;;
74788;SDS011;63313;48.258;12.518;2023-03-14T18:47:22;2.3400000000000003;;;0.96;;
74788;SDS011;63313;48.258;12.518;2023-03-14T18:52:49;2.37;;;0.9400000000000001;;
74788;SDS011;63313;48.258;12.518;2023-03-14T18:58:16;2.23;;;1.1800000000000002;;
74788;SDS011;63313;48.258;12.518;2023-03-14T19:03:43;2.27;;;1.4100000000000001;;
74788;SDS011;63313;48.258;12.518;2023-03-14T19:09:12;2.8600000000000003;;;1.19;;
74788;SDS011;63313;48.258;12.518;2023-03-14T19:14:39;2.3999999999999995;;;0.89;;
74788;SDS011;63313;48.258;12.518;2023-03-14T19:20:06;1.81;;;1.31;;
74788;SDS011;63313;48.258;12.518;2023-03-14T19:25:34;3.6399999999999997;;;1.1600000000000001;;
74788;SDS011;63313;48.258;12.518;2023-03-14T19:31:01;0.9899999999999999;;;0.89;;
74788;SDS011;63313;48.258;12.518;2023-03-14T19:36:29;1.0;;;0.93;;
74788;SDS011;63313;48.258;12.518;2023-03-14T19:41:56;3.7299999999999995;;;0.93;;
74788;SDS011;63313;48.258;12.518;2023-03-14T19:47:23;1.05;;;0.7699999999999999;;
74788;SDS011;63313;48.258;12.518;2023-03-14T19:52:50;2.4200000000000004;;;1.19;;
74788;SDS011;63313;48.258;12.518;2023-03-14T19:58:18;1.9600000000000002;;;1.2;;
74788;SDS011;63313;48.258;12.518;2023-03-14T20:03:45;2.36;;;1.24;;
74788;SDS011;63313;48.258;12.518;2023-03-14T20:09:12;2.3600000000000003;;;1.26;;
74788;SDS011;63313;48.258;12.518;2023-03-14T20:14:39;3.2299999999999995;;;1.1199999999999997;;
74788;SDS011;63313;48.258;12.518;2023-03-14T20:20:06;3.5300000000000002;;;0.96;;
74788;SDS011;63313;48.258;12.518;2023-03-14T20:25:34;1.8400000000000003;;;0.9799999999999999;;
74788;SDS011;63313;48.258;12.518;2023-03-14T20:31:01;1.4000000000000001;;;1.27;;
74788;SDS011;63313;48.258;12.518;2023-03-14T20:36:31;1.9300000000000002;;;0.99;;
74788;SDS011;63313;48.258;12.518;2023-03-14T20:41:58;3.15;;;1.29;;
74788;SDS011;63313;48.258;12.518;2023-03-14T20:47:25;2.1399999999999997;;;0.95;;
74788;SDS011;63313;48.258;12.518;2023-03-14T20:52:52;1.36;;;0.93;;
74788;SDS011;63313;48.258;12.518;2023-03-14T20:58:19;1.3900000000000001;;;1.2;;
74788;SDS011;63313;48.258;12.518;2023-03-14T21:03:46;1.6799999999999997;;;1.1199999999999999;;
74788;SDS011;63313;48.258;12.518;2023-03-14T21:09:13;3.88;;;2.04;;
74788;SDS011;63313;48.258;12.518;2023-03-14T21:14:40;2.15;;;1.31;;
74788;SDS011;63313;48.258;12.518;2023-03-14T21:20:08;3.5100000000000002;;;1.3200000000000003;;
74788;SDS011;63313;48.258;12.518;2023-03-14T21:25:35;1.7399999999999998;;;1.2099999999999997;;
74788;SDS011;63313;48.258;12.518;2023-03-14T21:31:03;2.82;;;1.1900000000000002;;
74788;SDS011;63313;48.258;12.518;2023-03-14T21:36:30;3.5800000000000005;;;1.4;;
74788;SDS011;63313;48.258;12.518;2023-03-14T21:41:58;3.3899999999999997;;;1.5;;
74788;SDS011;63313;48.258;12.518;2023-03-14T21:47:25;4.96;;;1.0899999999999999;;
74788;SDS011;63313;48.258;12.518;2023-03-14T21:52:52;2.56;;;1.0599999999999998;;
74788;SDS011;63313;48.258;12.518;2023-03-14T21:58:19;4.6;;;1.3800000000000001;;
74788;SDS011;63313;48.258;12.518;2023-03-14T22:03:46;1.35;;;0.9799999999999999;;
74788;SDS011;63313;48.258;12.518;2023-03-14T22:09:13;3.7600000000000002;;;2.28;;
74788;SDS011;63313;48.258;12.518;2023-03-14T22:14:40;2.3400000000000003;;;1.2900000000000003;;
74788;SDS011;63313;48.258;12.518;2023-03-14T22:20:07;3.96;;;1.03;;
74788;SDS011;63313;48.258;12.518;2023-03-14T22:25:37;4.76;;;1.19;;
74788;SDS011;63313;48.258;12.518;2023-03-14T22:31:04;1.8399999999999999;;;1.3199999999999998;;
74788;SDS011;63313;48.258;12.518;2023-03-14T22:36:31;3.95;;;1.06;;
74788;SDS011;63313;48.258;12.518;2023-03-14T22:41:59;2.12;;;1.34;;
74788;SDS011;63313;48.258;12.518;2023-03-14T22:47:26;4.99;;;1.34;;
74788;SDS011;63313;48.258;12.518;2023-03-14T22:52:53;3.2;;;1.36;;
74788;SDS011;63313;48.258;12.518;2023-03-14T22:58:20;3.28;;;1.3300000000000003;;
74788;SDS011;63313;48.258;12.518;2023-03-14T23:03:47;2.67;;;1.28;;
74788;SDS011;63313;48.258;12.518;2023-03-14T23:09:14;2.02;;;1.6;;
74788;SDS011;63313;48.258;12.518;2023-03-14T23:14:41;3.3699999999999997;;;1.3000000000000003;;
74788;SDS011;63313;48.258;12.518;2023-03-14T23:20:09;4.74;;;1.54;;
74788;SDS011;63313;48.258;12.518;2023-03-14T23:25:37;2.99;;;1.27;;
74788;SDS011;63313;48.258;12.518;2023-03-14T23:31:04;4.500000000000001;;;1.6099999999999999;;
74788;SDS011;63313;48.258;12.518;2023-03-14T23:36:31;1.97;;;1.37;;
74788;SDS011;63313;48.258;12.518;2023-03-14T23:41:58;5.04;;;1.4700000000000002;;
74788;SDS011;63313;48.258;12.518;2023-03-14T23:47:25;2.4099999999999997;;;1.3000000000000003;;
74788;SDS011;63313;48.258;12.518;2023-03-14T23:52:52;1.37;;;1.26;;
74788;SDS011;63313;48.258;12.518;2023-03-14T23:58:20;4.52;;;2.1;;
